メインページ
METAR-TAF:

METAR-TAF

空港 :

オデッサ国際空港

オデッサ, ウクライナ

緯度: 46-26N, 経度: 030-46E, 海抜: 42m

現時点の気象観測

当レポートは13分前の09:49(UTC)に作成
北/北東の風 12kt、北/北西から北東の間で変化する
気温 -3°C
湿度 93%
気圧 1026 hPa
視程: 1600m
高度200ftの雲はほとんどない
高度1000ftの曇り
雪, 靄

METAR: UKOO 190949Z 02006MPS 330V050 3600 1600S SN BR FEW002 OVC010 M03/M04 Q1026 R34/550530 NOSIG

時間: 12:02 (10:02 UTC)

予報

当レポートは4時間55分前の05:07(UTC)に作成
予報は19日の 06時(UTC)から 20日の 06時(UTC)まで有効
北/北東の風 14kt、最大27ktの突風を伴う
視程: 2100m
高度400ftの雲は散在している
高度700ftの千切れ雲あり
高度2000ftの雲は散在している, 積乱雲.
弱いにわか雪, 靄
確率 40% :
19日の 06時(UTC)から 19日の 12時(UTC)まで一時的に
視程: 1000m
高度300ftの千切れ雲あり
高度1700ftの雲は散在している, 積乱雲.
着氷性の雨, 雪
20日の 00時(UTC)から 20日の 01時(UTC)まで徐々に
北東の風 6kt

TAF: UKOO 190507Z 1906/2006 03007G14MPS 2100 -SHSN BR SCT004 BKN007 SCT020CB TX00/1913Z TNM04/1906Z PROB40 TEMPO 1906/1912 1000 FZRASN BKN003 SCT017CB BECMG 2000/2001 05003MPS

4,000以上の空港の気象観測と天気予報(METAR報とTAF報)

利用可能な観測所は地図上に黄色い丸と赤い丸で示す。

丸の上にカーソルを重ねると観測所名を参照できる。

次にクリックすると気象観測と天気予報を参照できる。

マップの切り替え:黒色「×」印の緑ボタンをクリックして拡大、「-」印の緑ボタンをクリックして縮小、緑色の三角印をクリックして隣りの地図に切り替え


METAR-TAF: